sensor_id;sensor_type;location;lat;lon;timestamp;P1;durP1;ratioP1;P2;durP2;ratioP2
24901;SDS011;31328;51.402;0.016;2022-08-02T00:01:52;1.00;;;0.70;;
24901;SDS011;31328;51.402;0.016;2022-08-02T00:04:18;0.98;;;0.75;;
24901;SDS011;31328;51.402;0.016;2022-08-02T00:06:45;1.60;;;0.90;;
24901;SDS011;31328;51.402;0.016;2022-08-02T00:09:11;1.10;;;0.90;;
24901;SDS011;31328;51.402;0.016;2022-08-02T00:11:38;1.77;;;1.10;;
24901;SDS011;31328;51.402;0.016;2022-08-02T00:14:04;1.63;;;1.10;;
24901;SDS011;31328;51.402;0.016;2022-08-02T00:16:31;1.10;;;0.90;;
24901;SDS011;31328;51.402;0.016;2022-08-02T00:18:57;1.67;;;1.20;;
24901;SDS011;31328;51.402;0.016;2022-08-02T00:21:23;1.08;;;0.98;;
24901;SDS011;31328;51.402;0.016;2022-08-02T00:23:50;2.47;;;0.85;;
24901;SDS011;31328;51.402;0.016;2022-08-02T00:26:16;1.58;;;1.00;;
24901;SDS011;31328;51.402;0.016;2022-08-02T00:28:42;3.20;;;1.10;;
24901;SDS011;31328;51.402;0.016;2022-08-02T00:31:09;1.30;;;1.00;;
24901;SDS011;31328;51.402;0.016;2022-08-02T00:33:35;2.72;;;1.10;;
24901;SDS011;31328;51.402;0.016;2022-08-02T00:36:02;1.60;;;1.00;;
24901;SDS011;31328;51.402;0.016;2022-08-02T00:38:29;1.40;;;1.25;;
24901;SDS011;31328;51.402;0.016;2022-08-02T00:40:55;1.67;;;0.90;;
24901;SDS011;31328;51.402;0.016;2022-08-02T00:43:21;1.50;;;1.20;;
24901;SDS011;31328;51.402;0.016;2022-08-02T00:45:48;2.55;;;1.20;;
24901;SDS011;31328;51.402;0.016;2022-08-02T00:48:14;2.20;;;1.08;;
24901;SDS011;31328;51.402;0.016;2022-08-02T00:50:41;1.92;;;1.13;;
24901;SDS011;31328;51.402;0.016;2022-08-02T00:53:07;1.50;;;1.13;;
24901;SDS011;31328;51.402;0.016;2022-08-02T00:55:35;2.28;;;0.98;;
24901;SDS011;31328;51.402;0.016;2022-08-02T00:58:02;1.58;;;1.00;;
24901;SDS011;31328;51.402;0.016;2022-08-02T01:00:29;3.92;;;1.25;;
24901;SDS011;31328;51.402;0.016;2022-08-02T01:02:55;7.63;;;1.40;;
24901;SDS011;31328;51.402;0.016;2022-08-02T01:05:22;2.15;;;1.13;;
24901;SDS011;31328;51.402;0.016;2022-08-02T01:07:48;1.35;;;1.10;;
24901;SDS011;31328;51.402;0.016;2022-08-02T01:10:14;1.75;;;1.02;;
24901;SDS011;31328;51.402;0.016;2022-08-02T01:12:41;2.08;;;1.10;;
24901;SDS011;31328;51.402;0.016;2022-08-02T01:15:08;2.42;;;1.30;;
24901;SDS011;31328;51.402;0.016;2022-08-02T01:30:40;1.85;;;1.42;;
24901;SDS011;31328;51.402;0.016;2022-08-02T01:33:09;2.00;;;0.98;;
24901;SDS011;31328;51.402;0.016;2022-08-02T01:35:40;1.58;;;1.00;;
24901;SDS011;31328;51.402;0.016;2022-08-02T01:38:12;1.10;;;0.93;;
24901;SDS011;31328;51.402;0.016;2022-08-02T01:40:42;2.28;;;0.90;;
24901;SDS011;31328;51.402;0.016;2022-08-02T01:43:10;1.35;;;1.17;;
24901;SDS011;31328;51.402;0.016;2022-08-02T01:45:38;1.05;;;0.82;;
24901;SDS011;31328;51.402;0.016;2022-08-02T01:48:07;2.42;;;1.10;;
24901;SDS011;31328;51.402;0.016;2022-08-02T01:50:35;1.00;;;0.90;;
24901;SDS011;31328;51.402;0.016;2022-08-02T01:53:04;4.40;;;1.58;;
24901;SDS011;31328;51.402;0.016;2022-08-02T01:55:40;1.98;;;1.10;;
24901;SDS011;31328;51.402;0.016;2022-08-02T01:58:09;1.55;;;0.93;;
24901;SDS011;31328;51.402;0.016;2022-08-02T02:00:39;1.85;;;1.08;;
24901;SDS011;31328;51.402;0.016;2022-08-02T02:03:08;2.63;;;1.20;;
24901;SDS011;31328;51.402;0.016;2022-08-02T02:05:38;2.00;;;1.25;;
24901;SDS011;31328;51.402;0.016;2022-08-02T02:08:06;1.55;;;1.00;;
24901;SDS011;31328;51.402;0.016;2022-08-02T02:10:35;1.25;;;1.15;;
24901;SDS011;31328;51.402;0.016;2022-08-02T02:13:04;2.67;;;1.60;;
24901;SDS011;31328;51.402;0.016;2022-08-02T02:15:33;1.42;;;1.10;;
24901;SDS011;31328;51.402;0.016;2022-08-02T02:18:02;1.80;;;0.90;;
24901;SDS011;31328;51.402;0.016;2022-08-02T02:20:31;2.38;;;1.35;;
24901;SDS011;31328;51.402;0.016;2022-08-02T02:22:57;1.88;;;1.27;;
24901;SDS011;31328;51.402;0.016;2022-08-02T02:25:24;2.58;;;1.00;;
24901;SDS011;31328;51.402;0.016;2022-08-02T02:28:29;3.25;;;1.52;;
24901;SDS011;31328;51.402;0.016;2022-08-02T02:31:02;1.95;;;1.60;;
24901;SDS011;31328;51.402;0.016;2022-08-02T02:33:38;1.90;;;1.30;;
24901;SDS011;31328;51.402;0.016;2022-08-02T02:36:09;1.20;;;0.90;;
24901;SDS011;31328;51.402;0.016;2022-08-02T02:38:36;2.42;;;0.95;;
24901;SDS011;31328;51.402;0.016;2022-08-02T02:41:04;1.38;;;0.80;;
24901;SDS011;31328;51.402;0.016;2022-08-02T02:43:34;2.72;;;1.00;;
24901;SDS011;31328;51.402;0.016;2022-08-02T02:46:03;1.85;;;1.10;;
24901;SDS011;31328;51.402;0.016;2022-08-02T02:48:31;1.17;;;0.90;;
24901;SDS011;31328;51.402;0.016;2022-08-02T02:51:00;1.90;;;0.88;;
24901;SDS011;31328;51.402;0.016;2022-08-02T02:53:29;1.50;;;0.70;;
24901;SDS011;31328;51.402;0.016;2022-08-02T02:55:56;1.92;;;1.00;;
24901;SDS011;31328;51.402;0.016;2022-08-02T02:58:23;2.55;;;1.08;;
24901;SDS011;31328;51.402;0.016;2022-08-02T03:00:50;2.55;;;1.10;;
24901;SDS011;31328;51.402;0.016;2022-08-02T03:03:36;1.02;;;0.90;;
24901;SDS011;31328;51.402;0.016;2022-08-02T03:06:03;2.35;;;1.05;;
24901;SDS011;31328;51.402;0.016;2022-08-02T03:08:30;1.35;;;1.20;;
24901;SDS011;31328;51.402;0.016;2022-08-02T03:10:56;1.15;;;0.98;;
24901;SDS011;31328;51.402;0.016;2022-08-02T03:13:23;1.85;;;0.90;;
24901;SDS011;31328;51.402;0.016;2022-08-02T03:15:50;1.45;;;1.10;;
24901;SDS011;31328;51.402;0.016;2022-08-02T03:18:33;1.52;;;1.08;;
24901;SDS011;31328;51.402;0.016;2022-08-02T03:21:03;2.85;;;1.40;;
24901;SDS011;31328;51.402;0.016;2022-08-02T03:23:31;1.67;;;1.38;;
24901;SDS011;31328;51.402;0.016;2022-08-02T03:25:58;1.95;;;1.30;;
24901;SDS011;31328;51.402;0.016;2022-08-02T03:28:25;1.63;;;1.20;;
24901;SDS011;31328;51.402;0.016;2022-08-02T03:30:51;2.60;;;0.98;;
24901;SDS011;31328;51.402;0.016;2022-08-02T03:33:19;1.98;;;1.45;;
24901;SDS011;31328;51.402;0.016;2022-08-02T03:35:47;1.52;;;1.10;;
24901;SDS011;31328;51.402;0.016;2022-08-02T03:38:16;2.00;;;1.10;;
24901;SDS011;31328;51.402;0.016;2022-08-02T03:40:44;1.50;;;1.10;;
24901;SDS011;31328;51.402;0.016;2022-08-02T03:43:12;3.92;;;1.30;;
24901;SDS011;31328;51.402;0.016;2022-08-02T03:45:43;1.77;;;1.17;;
24901;SDS011;31328;51.402;0.016;2022-08-02T03:48:13;1.88;;;1.05;;
24901;SDS011;31328;51.402;0.016;2022-08-02T03:50:41;2.80;;;1.30;;
24901;SDS011;31328;51.402;0.016;2022-08-02T03:53:08;3.72;;;1.25;;
24901;SDS011;31328;51.402;0.016;2022-08-02T03:55:35;3.13;;;1.15;;
24901;SDS011;31328;51.402;0.016;2022-08-02T03:58:02;3.38;;;1.30;;
24901;SDS011;31328;51.402;0.016;2022-08-02T04:00:28;2.97;;;1.48;;
24901;SDS011;31328;51.402;0.016;2022-08-02T04:02:54;1.80;;;1.25;;
24901;SDS011;31328;51.402;0.016;2022-08-02T04:05:21;1.20;;;1.05;;
24901;SDS011;31328;51.402;0.016;2022-08-02T04:07:48;2.10;;;1.63;;
24901;SDS011;31328;51.402;0.016;2022-08-02T04:10:16;2.28;;;1.00;;
24901;SDS011;31328;51.402;0.016;2022-08-02T04:12:43;2.78;;;1.00;;
24901;SDS011;31328;51.402;0.016;2022-08-02T04:15:10;2.00;;;0.95;;
24901;SDS011;31328;51.402;0.016;2022-08-02T04:17:40;2.97;;;1.23;;
24901;SDS011;31328;51.402;0.016;2022-08-02T04:20:11;2.85;;;1.30;;
24901;SDS011;31328;51.402;0.016;2022-08-02T04:25:19;2.67;;;1.20;;
24901;SDS011;31328;51.402;0.016;2022-08-02T04:27:48;3.22;;;1.10;;
24901;SDS011;31328;51.402;0.016;2022-08-02T04:30:15;3.13;;;1.50;;
24901;SDS011;31328;51.402;0.016;2022-08-02T04:32:43;3.22;;;1.42;;
24901;SDS011;31328;51.402;0.016;2022-08-02T04:35:10;2.05;;;1.10;;
24901;SDS011;31328;51.402;0.016;2022-08-02T04:37:37;1.80;;;1.50;;
24901;SDS011;31328;51.402;0.016;2022-08-02T04:40:09;2.08;;;0.90;;
24901;SDS011;31328;51.402;0.016;2022-08-02T04:42:36;3.13;;;1.38;;
24901;SDS011;31328;51.402;0.016;2022-08-02T04:45:04;4.22;;;1.58;;
24901;SDS011;31328;51.402;0.016;2022-08-02T04:47:32;2.22;;;1.42;;
24901;SDS011;31328;51.402;0.016;2022-08-02T04:49:59;2.22;;;1.27;;
24901;SDS011;31328;51.402;0.016;2022-08-02T04:52:26;3.22;;;1.55;;
24901;SDS011;31328;51.402;0.016;2022-08-02T04:54:52;1.80;;;1.58;;
24901;SDS011;31328;51.402;0.016;2022-08-02T04:57:19;3.83;;;2.00;;
24901;SDS011;31328;51.402;0.016;2022-08-02T05:00:05;4.25;;;2.20;;
24901;SDS011;31328;51.402;0.016;2022-08-02T05:02:33;3.70;;;1.90;;
24901;SDS011;31328;51.402;0.016;2022-08-02T05:05:01;4.50;;;2.63;;
24901;SDS011;31328;51.402;0.016;2022-08-02T05:07:28;4.80;;;2.10;;
24901;SDS011;31328;51.402;0.016;2022-08-02T05:09:54;4.28;;;2.42;;
24901;SDS011;31328;51.402;0.016;2022-08-02T05:12:21;4.55;;;2.60;;
24901;SDS011;31328;51.402;0.016;2022-08-02T05:14:47;5.97;;;2.50;;
24901;SDS011;31328;51.402;0.016;2022-08-02T05:17:14;3.53;;;2.58;;
24901;SDS011;31328;51.402;0.016;2022-08-02T05:19:41;4.82;;;2.85;;
24901;SDS011;31328;51.402;0.016;2022-08-02T05:22:07;4.78;;;2.78;;
24901;SDS011;31328;51.402;0.016;2022-08-02T05:24:33;4.13;;;2.47;;
24901;SDS011;31328;51.402;0.016;2022-08-02T05:27:00;5.85;;;3.17;;
24901;SDS011;31328;51.402;0.016;2022-08-02T05:29:26;3.40;;;2.53;;
24901;SDS011;31328;51.402;0.016;2022-08-02T05:31:53;4.28;;;2.05;;
24901;SDS011;31328;51.402;0.016;2022-08-02T05:34:19;4.35;;;2.20;;
24901;SDS011;31328;51.402;0.016;2022-08-02T05:36:45;3.92;;;2.60;;
24901;SDS011;31328;51.402;0.016;2022-08-02T05:39:12;4.70;;;2.28;;
24901;SDS011;31328;51.402;0.016;2022-08-02T05:41:38;3.58;;;2.22;;
24901;SDS011;31328;51.402;0.016;2022-08-02T05:44:05;3.53;;;2.03;;
24901;SDS011;31328;51.402;0.016;2022-08-02T05:46:31;4.82;;;2.22;;
24901;SDS011;31328;51.402;0.016;2022-08-02T05:48:58;4.28;;;2.10;;
24901;SDS011;31328;51.402;0.016;2022-08-02T05:51:28;3.45;;;2.20;;
24901;SDS011;31328;51.402;0.016;2022-08-02T05:54:14;3.13;;;2.05;;
24901;SDS011;31328;51.402;0.016;2022-08-02T05:56:45;2.42;;;1.80;;
24901;SDS011;31328;51.402;0.016;2022-08-02T06:02:01;4.03;;;2.13;;
24901;SDS011;31328;51.402;0.016;2022-08-02T06:04:40;4.90;;;2.53;;
24901;SDS011;31328;51.402;0.016;2022-08-02T06:07:21;3.30;;;2.00;;
24901;SDS011;31328;51.402;0.016;2022-08-02T06:09:49;4.35;;;2.38;;
24901;SDS011;31328;51.402;0.016;2022-08-02T06:12:16;3.90;;;1.92;;
24901;SDS011;31328;51.402;0.016;2022-08-02T06:14:44;2.92;;;2.17;;
24901;SDS011;31328;51.402;0.016;2022-08-02T06:17:12;3.17;;;2.47;;
24901;SDS011;31328;51.402;0.016;2022-08-02T06:19:39;3.33;;;2.15;;
24901;SDS011;31328;51.402;0.016;2022-08-02T06:22:07;3.30;;;2.30;;
24901;SDS011;31328;51.402;0.016;2022-08-02T06:24:43;3.30;;;2.17;;
24901;SDS011;31328;51.402;0.016;2022-08-02T06:27:13;4.10;;;2.25;;
24901;SDS011;31328;51.402;0.016;2022-08-02T06:29:43;3.53;;;2.65;;
24901;SDS011;31328;51.402;0.016;2022-08-02T06:32:17;4.35;;;2.70;;
24901;SDS011;31328;51.402;0.016;2022-08-02T06:34:44;3.90;;;3.00;;
24901;SDS011;31328;51.402;0.016;2022-08-02T06:37:19;5.55;;;3.17;;
24901;SDS011;31328;51.402;0.016;2022-08-02T06:39:48;5.03;;;3.33;;
24901;SDS011;31328;51.402;0.016;2022-08-02T06:42:19;5.47;;;3.05;;
24901;SDS011;31328;51.402;0.016;2022-08-02T06:44:53;4.25;;;2.75;;
24901;SDS011;31328;51.402;0.016;2022-08-02T06:47:20;4.15;;;2.78;;
24901;SDS011;31328;51.402;0.016;2022-08-02T06:49:46;5.22;;;3.17;;
24901;SDS011;31328;51.402;0.016;2022-08-02T06:52:13;4.78;;;2.90;;
24901;SDS011;31328;51.402;0.016;2022-08-02T06:54:40;6.32;;;3.80;;
24901;SDS011;31328;51.402;0.016;2022-08-02T06:57:07;5.22;;;3.03;;
24901;SDS011;31328;51.402;0.016;2022-08-02T06:59:34;4.95;;;2.88;;
24901;SDS011;31328;51.402;0.016;2022-08-02T07:02:00;6.30;;;2.83;;
24901;SDS011;31328;51.402;0.016;2022-08-02T07:04:28;5.60;;;2.80;;
24901;SDS011;31328;51.402;0.016;2022-08-02T07:06:54;3.80;;;2.88;;
24901;SDS011;31328;51.402;0.016;2022-08-02T07:09:22;3.92;;;2.83;;
24901;SDS011;31328;51.402;0.016;2022-08-02T07:11:48;5.13;;;2.80;;
24901;SDS011;31328;51.402;0.016;2022-08-02T07:14:14;4.45;;;2.50;;
24901;SDS011;31328;51.402;0.016;2022-08-02T07:16:41;3.70;;;2.58;;
24901;SDS011;31328;51.402;0.016;2022-08-02T07:19:07;5.47;;;2.72;;
24901;SDS011;31328;51.402;0.016;2022-08-02T07:21:33;3.45;;;2.10;;
24901;SDS011;31328;51.402;0.016;2022-08-02T07:24:00;4.05;;;2.60;;
24901;SDS011;31328;51.402;0.016;2022-08-02T07:26:26;4.10;;;2.47;;
24901;SDS011;31328;51.402;0.016;2022-08-02T07:28:53;5.93;;;2.75;;
24901;SDS011;31328;51.402;0.016;2022-08-02T07:31:19;6.25;;;2.67;;
24901;SDS011;31328;51.402;0.016;2022-08-02T07:33:46;4.57;;;2.80;;
24901;SDS011;31328;51.402;0.016;2022-08-02T07:36:12;3.38;;;2.10;;
24901;SDS011;31328;51.402;0.016;2022-08-02T07:38:39;4.18;;;2.63;;
24901;SDS011;31328;51.402;0.016;2022-08-02T07:41:05;11.57;;;3.60;;
24901;SDS011;31328;51.402;0.016;2022-08-02T07:43:31;9.70;;;4.88;;
24901;SDS011;31328;51.402;0.016;2022-08-02T07:45:58;4.28;;;2.70;;
24901;SDS011;31328;51.402;0.016;2022-08-02T07:48:24;6.45;;;2.42;;
24901;SDS011;31328;51.402;0.016;2022-08-02T07:50:50;4.05;;;1.85;;
24901;SDS011;31328;51.402;0.016;2022-08-02T07:53:17;3.55;;;2.28;;
24901;SDS011;31328;51.402;0.016;2022-08-02T07:55:43;6.30;;;2.67;;
24901;SDS011;31328;51.402;0.016;2022-08-02T07:58:10;2.50;;;1.40;;
24901;SDS011;31328;51.402;0.016;2022-08-02T08:00:36;7.90;;;2.40;;
24901;SDS011;31328;51.402;0.016;2022-08-02T08:03:03;2.80;;;1.50;;
24901;SDS011;31328;51.402;0.016;2022-08-02T08:05:29;4.25;;;1.70;;
24901;SDS011;31328;51.402;0.016;2022-08-02T08:07:55;2.92;;;1.58;;
24901;SDS011;31328;51.402;0.016;2022-08-02T08:10:22;2.67;;;1.70;;
24901;SDS011;31328;51.402;0.016;2022-08-02T08:12:49;2.80;;;1.60;;
24901;SDS011;31328;51.402;0.016;2022-08-02T08:15:15;2.20;;;1.55;;
24901;SDS011;31328;51.402;0.016;2022-08-02T08:17:41;6.10;;;2.10;;
24901;SDS011;31328;51.402;0.016;2022-08-02T08:20:08;2.33;;;1.67;;
24901;SDS011;31328;51.402;0.016;2022-08-02T08:22:35;4.20;;;1.50;;
24901;SDS011;31328;51.402;0.016;2022-08-02T08:25:01;1.98;;;1.40;;
24901;SDS011;31328;51.402;0.016;2022-08-02T08:27:27;2.72;;;1.55;;
24901;SDS011;31328;51.402;0.016;2022-08-02T08:29:54;3.28;;;1.25;;
24901;SDS011;31328;51.402;0.016;2022-08-02T08:32:20;2.70;;;1.20;;
24901;SDS011;31328;51.402;0.016;2022-08-02T08:34:47;2.53;;;1.27;;
24901;SDS011;31328;51.402;0.016;2022-08-02T08:37:15;2.15;;;1.45;;
24901;SDS011;31328;51.402;0.016;2022-08-02T08:39:42;2.42;;;1.30;;
24901;SDS011;31328;51.402;0.016;2022-08-02T08:42:08;1.40;;;1.20;;
24901;SDS011;31328;51.402;0.016;2022-08-02T08:44:35;2.30;;;1.42;;
24901;SDS011;31328;51.402;0.016;2022-08-02T08:47:02;1.98;;;1.17;;
24901;SDS011;31328;51.402;0.016;2022-08-02T08:52:06;1.95;;;1.33;;
24901;SDS011;31328;51.402;0.016;2022-08-02T08:54:34;2.72;;;1.20;;
24901;SDS011;31328;51.402;0.016;2022-08-02T08:57:05;2.67;;;1.42;;
24901;SDS011;31328;51.402;0.016;2022-08-02T08:59:32;1.10;;;1.00;;
24901;SDS011;31328;51.402;0.016;2022-08-02T09:01:59;3.58;;;1.25;;
24901;SDS011;31328;51.402;0.016;2022-08-02T09:04:26;2.33;;;1.33;;
24901;SDS011;31328;51.402;0.016;2022-08-02T09:06:54;2.30;;;1.40;;
24901;SDS011;31328;51.402;0.016;2022-08-02T09:09:20;2.67;;;1.55;;
24901;SDS011;31328;51.402;0.016;2022-08-02T09:11:46;1.85;;;1.02;;
24901;SDS011;31328;51.402;0.016;2022-08-02T09:14:24;1.90;;;0.88;;
24901;SDS011;31328;51.402;0.016;2022-08-02T09:17:05;3.78;;;1.05;;
24901;SDS011;31328;51.402;0.016;2022-08-02T09:19:37;0.50;;;0.50;;
24901;SDS011;31328;51.402;0.016;2022-08-02T09:22:06;3.30;;;0.80;;
24901;SDS011;31328;51.402;0.016;2022-08-02T09:24:41;0.75;;;0.30;;
24901;SDS011;31328;51.402;0.016;2022-08-02T09:27:15;1.55;;;0.68;;
24901;SDS011;31328;51.402;0.016;2022-08-02T09:29:46;1.50;;;0.57;;
24901;SDS011;31328;51.402;0.016;2022-08-02T09:32:14;1.98;;;0.68;;
24901;SDS011;31328;51.402;0.016;2022-08-02T09:39:49;1.97;;;0.83;;
24901;SDS011;31328;51.402;0.016;2022-08-02T09:42:16;2.00;;;0.52;;
24901;SDS011;31328;51.402;0.016;2022-08-02T09:44:53;2.30;;;0.80;;
24901;SDS011;31328;51.402;0.016;2022-08-02T09:47:27;1.33;;;0.70;;
24901;SDS011;31328;51.402;0.016;2022-08-02T09:49:55;2.15;;;1.05;;
24901;SDS011;31328;51.402;0.016;2022-08-02T09:52:26;1.20;;;0.90;;
24901;SDS011;31328;51.402;0.016;2022-08-02T09:54:54;1.88;;;1.13;;
24901;SDS011;31328;51.402;0.016;2022-08-02T09:57:28;2.28;;;1.23;;
24901;SDS011;31328;51.402;0.016;2022-08-02T09:59:55;1.83;;;1.20;;
24901;SDS011;31328;51.402;0.016;2022-08-02T10:02:22;2.42;;;1.20;;
24901;SDS011;31328;51.402;0.016;2022-08-02T10:04:49;5.28;;;1.80;;
24901;SDS011;31328;51.402;0.016;2022-08-02T10:07:16;2.67;;;1.70;;
24901;SDS011;31328;51.402;0.016;2022-08-02T10:09:44;2.65;;;1.63;;
24901;SDS011;31328;51.402;0.016;2022-08-02T10:12:11;2.78;;;2.08;;
24901;SDS011;31328;51.402;0.016;2022-08-02T10:14:39;3.92;;;1.75;;
24901;SDS011;31328;51.402;0.016;2022-08-02T10:17:06;4.05;;;1.83;;
24901;SDS011;31328;51.402;0.016;2022-08-02T10:19:33;2.60;;;1.80;;
24901;SDS011;31328;51.402;0.016;2022-08-02T10:24:29;4.45;;;1.90;;
24901;SDS011;31328;51.402;0.016;2022-08-02T10:26:57;4.25;;;1.98;;
24901;SDS011;31328;51.402;0.016;2022-08-02T10:29:36;2.22;;;1.52;;
24901;SDS011;31328;51.402;0.016;2022-08-02T10:32:12;2.10;;;1.40;;
24901;SDS011;31328;51.402;0.016;2022-08-02T10:34:47;2.20;;;1.25;;
24901;SDS011;31328;51.402;0.016;2022-08-02T10:37:20;2.30;;;1.38;;
24901;SDS011;31328;51.402;0.016;2022-08-02T10:39:54;3.33;;;1.20;;
24901;SDS011;31328;51.402;0.016;2022-08-02T10:42:56;1.73;;;1.60;;
24901;SDS011;31328;51.402;0.016;2022-08-02T10:45:16;3.55;;;1.60;;
24901;SDS011;31328;51.402;0.016;2022-08-02T10:48:03;1.38;;;1.27;;
24901;SDS011;31328;51.402;0.016;2022-08-02T10:53:28;2.40;;;1.10;;
24901;SDS011;31328;51.402;0.016;2022-08-02T10:55:59;2.03;;;1.30;;
24901;SDS011;31328;51.402;0.016;2022-08-02T10:58:28;1.63;;;1.38;;
24901;SDS011;31328;51.402;0.016;2022-08-02T11:01:07;3.22;;;1.40;;
24901;SDS011;31328;51.402;0.016;2022-08-02T11:03:58;2.85;;;1.35;;
24901;SDS011;31328;51.402;0.016;2022-08-02T11:06:25;2.75;;;1.50;;
24901;SDS011;31328;51.402;0.016;2022-08-02T11:12:01;2.20;;;1.30;;
24901;SDS011;31328;51.402;0.016;2022-08-02T11:19:21;2.42;;;1.35;;
24901;SDS011;31328;51.402;0.016;2022-08-02T11:24:29;2.03;;;1.60;;
24901;SDS011;31328;51.402;0.016;2022-08-02T11:26:59;2.85;;;1.30;;
24901;SDS011;31328;51.402;0.016;2022-08-02T11:29:40;2.63;;;1.10;;
24901;SDS011;31328;51.402;0.016;2022-08-02T11:32:13;1.63;;;1.10;;
24901;SDS011;31328;51.402;0.016;2022-08-02T11:34:43;2.35;;;1.05;;
24901;SDS011;31328;51.402;0.016;2022-08-02T11:37:11;1.63;;;1.10;;
24901;SDS011;31328;51.402;0.016;2022-08-02T11:39:38;1.00;;;0.82;;
24901;SDS011;31328;51.402;0.016;2022-08-02T11:42:04;0.98;;;0.88;;
24901;SDS011;31328;51.402;0.016;2022-08-02T11:44:38;1.42;;;0.68;;
24901;SDS011;31328;51.402;0.016;2022-08-02T11:47:06;1.95;;;0.80;;
24901;SDS011;31328;51.402;0.016;2022-08-02T11:49:33;2.40;;;0.73;;
24901;SDS011;31328;51.402;0.016;2022-08-02T11:52:02;0.68;;;0.50;;
24901;SDS011;31328;51.402;0.016;2022-08-02T11:54:35;0.75;;;0.63;;
24901;SDS011;31328;51.402;0.016;2022-08-02T11:57:18;1.25;;;0.73;;
24901;SDS011;31328;51.402;0.016;2022-08-02T11:59:47;1.02;;;0.73;;
24901;SDS011;31328;51.402;0.016;2022-08-02T12:02:16;0.60;;;0.55;;
24901;SDS011;31328;51.402;0.016;2022-08-02T12:04:48;1.13;;;0.60;;
24901;SDS011;31328;51.402;0.016;2022-08-02T12:07:27;1.35;;;0.70;;
24901;SDS011;31328;51.402;0.016;2022-08-02T12:09:58;2.08;;;0.88;;
24901;SDS011;31328;51.402;0.016;2022-08-02T12:12:26;1.65;;;0.77;;
24901;SDS011;31328;51.402;0.016;2022-08-02T12:14:53;1.23;;;0.70;;
24901;SDS011;31328;51.402;0.016;2022-08-02T12:17:23;1.40;;;0.65;;
24901;SDS011;31328;51.402;0.016;2022-08-02T12:20:09;0.80;;;0.50;;
24901;SDS011;31328;51.402;0.016;2022-08-02T12:22:36;1.08;;;0.80;;
24901;SDS011;31328;51.402;0.016;2022-08-02T12:25:14;1.50;;;0.80;;
24901;SDS011;31328;51.402;0.016;2022-08-02T12:27:43;1.05;;;0.65;;
24901;SDS011;31328;51.402;0.016;2022-08-02T12:30:10;1.40;;;0.70;;
24901;SDS011;31328;51.402;0.016;2022-08-02T12:32:42;1.33;;;0.80;;
24901;SDS011;31328;51.402;0.016;2022-08-02T12:35:15;0.82;;;0.65;;
24901;SDS011;31328;51.402;0.016;2022-08-02T12:37:45;1.85;;;0.70;;
24901;SDS011;31328;51.402;0.016;2022-08-02T12:43:03;1.85;;;0.60;;
24901;SDS011;31328;51.402;0.016;2022-08-02T12:45:31;2.40;;;0.80;;
24901;SDS011;31328;51.402;0.016;2022-08-02T12:48:37;1.10;;;1.00;;
24901;SDS011;31328;51.402;0.016;2022-08-02T12:54:18;2.00;;;1.20;;
24901;SDS011;31328;51.402;0.016;2022-08-02T12:56:47;1.38;;;1.00;;
24901;SDS011;31328;51.402;0.016;2022-08-02T12:59:14;1.02;;;1.02;;
24901;SDS011;31328;51.402;0.016;2022-08-02T13:01:42;1.38;;;1.00;;
24901;SDS011;31328;51.402;0.016;2022-08-02T13:04:10;1.05;;;0.75;;
24901;SDS011;31328;51.402;0.016;2022-08-02T13:06:36;2.42;;;1.25;;
24901;SDS011;31328;51.402;0.016;2022-08-02T13:09:10;3.83;;;1.00;;
24901;SDS011;31328;51.402;0.016;2022-08-02T13:11:38;2.63;;;0.95;;
24901;SDS011;31328;51.402;0.016;2022-08-02T13:14:05;1.15;;;0.63;;
24901;SDS011;31328;51.402;0.016;2022-08-02T13:16:31;1.77;;;0.70;;
24901;SDS011;31328;51.402;0.016;2022-08-02T13:18:58;3.08;;;0.90;;
24901;SDS011;31328;51.402;0.016;2022-08-02T13:21:24;0.75;;;0.55;;
24901;SDS011;31328;51.402;0.016;2022-08-02T13:23:51;2.28;;;0.57;;
24901;SDS011;31328;51.402;0.016;2022-08-02T13:26:17;0.50;;;0.50;;
24901;SDS011;31328;51.402;0.016;2022-08-02T13:28:44;1.75;;;0.63;;
24901;SDS011;31328;51.402;0.016;2022-08-02T13:31:11;1.95;;;0.95;;
24901;SDS011;31328;51.402;0.016;2022-08-02T13:33:38;1.27;;;0.77;;
24901;SDS011;31328;51.402;0.016;2022-08-02T13:36:04;2.10;;;1.00;;
24901;SDS011;31328;51.402;0.016;2022-08-02T13:38:31;1.63;;;0.75;;
24901;SDS011;31328;51.402;0.016;2022-08-02T13:40:57;2.17;;;0.63;;
24901;SDS011;31328;51.402;0.016;2022-08-02T13:43:37;0.98;;;0.88;;
24901;SDS011;31328;51.402;0.016;2022-08-02T13:46:04;1.92;;;0.57;;
24901;SDS011;31328;51.402;0.016;2022-08-02T13:48:31;1.23;;;0.82;;
24901;SDS011;31328;51.402;0.016;2022-08-02T13:50:57;0.88;;;0.50;;
24901;SDS011;31328;51.402;0.016;2022-08-02T13:53:24;1.58;;;0.50;;
24901;SDS011;31328;51.402;0.016;2022-08-02T13:55:51;1.17;;;0.70;;
24901;SDS011;31328;51.402;0.016;2022-08-02T13:58:17;1.33;;;0.73;;
24901;SDS011;31328;51.402;0.016;2022-08-02T14:00:44;1.00;;;0.60;;
24901;SDS011;31328;51.402;0.016;2022-08-02T14:03:10;3.28;;;0.68;;
24901;SDS011;31328;51.402;0.016;2022-08-02T14:05:37;0.70;;;0.50;;
24901;SDS011;31328;51.402;0.016;2022-08-02T14:08:05;0.77;;;0.50;;
24901;SDS011;31328;51.402;0.016;2022-08-02T14:10:33;0.50;;;0.50;;
24901;SDS011;31328;51.402;0.016;2022-08-02T14:12:59;1.40;;;0.98;;
24901;SDS011;31328;51.402;0.016;2022-08-02T14:15:26;1.65;;;0.50;;
24901;SDS011;31328;51.402;0.016;2022-08-02T14:17:52;1.48;;;0.90;;
24901;SDS011;31328;51.402;0.016;2022-08-02T14:20:19;1.33;;;0.60;;
24901;SDS011;31328;51.402;0.016;2022-08-02T14:22:45;1.38;;;0.50;;
24901;SDS011;31328;51.402;0.016;2022-08-02T14:25:11;0.80;;;0.80;;
24901;SDS011;31328;51.402;0.016;2022-08-02T14:27:38;1.23;;;0.80;;
24901;SDS011;31328;51.402;0.016;2022-08-02T14:30:04;2.05;;;0.80;;
24901;SDS011;31328;51.402;0.016;2022-08-02T14:32:31;1.63;;;0.90;;
24901;SDS011;31328;51.402;0.016;2022-08-02T14:34:57;1.88;;;0.88;;
24901;SDS011;31328;51.402;0.016;2022-08-02T14:37:24;1.77;;;0.93;;
24901;SDS011;31328;51.402;0.016;2022-08-02T14:39:50;3.63;;;0.98;;
24901;SDS011;31328;51.402;0.016;2022-08-02T14:42:18;2.70;;;1.17;;
24901;SDS011;31328;51.402;0.016;2022-08-02T14:44:45;1.95;;;1.00;;
24901;SDS011;31328;51.402;0.016;2022-08-02T14:47:13;1.38;;;0.80;;
24901;SDS011;31328;51.402;0.016;2022-08-02T14:49:40;0.82;;;0.60;;
24901;SDS011;31328;51.402;0.016;2022-08-02T14:52:06;2.72;;;1.08;;
24901;SDS011;31328;51.402;0.016;2022-08-02T14:54:33;2.10;;;0.90;;
24901;SDS011;31328;51.402;0.016;2022-08-02T14:57:00;1.95;;;1.10;;
24901;SDS011;31328;51.402;0.016;2022-08-02T14:59:27;2.00;;;0.95;;
24901;SDS011;31328;51.402;0.016;2022-08-02T15:01:54;1.55;;;1.30;;
24901;SDS011;31328;51.402;0.016;2022-08-02T15:04:21;2.67;;;1.48;;
24901;SDS011;31328;51.402;0.016;2022-08-02T15:06:48;3.15;;;1.42;;
24901;SDS011;31328;51.402;0.016;2022-08-02T15:09:14;2.35;;;0.90;;
24901;SDS011;31328;51.402;0.016;2022-08-02T15:11:41;3.00;;;1.10;;
24901;SDS011;31328;51.402;0.016;2022-08-02T15:14:07;2.00;;;1.00;;
24901;SDS011;31328;51.402;0.016;2022-08-02T15:16:33;1.88;;;1.17;;
24901;SDS011;31328;51.402;0.016;2022-08-02T15:19:00;3.72;;;1.27;;
24901;SDS011;31328;51.402;0.016;2022-08-02T15:21:27;2.17;;;1.17;;
24901;SDS011;31328;51.402;0.016;2022-08-02T15:23:54;2.55;;;0.90;;
24901;SDS011;31328;51.402;0.016;2022-08-02T15:26:20;2.13;;;0.90;;
24901;SDS011;31328;51.402;0.016;2022-08-02T15:28:47;2.40;;;1.00;;
24901;SDS011;31328;51.402;0.016;2022-08-02T15:31:14;3.55;;;1.40;;
24901;SDS011;31328;51.402;0.016;2022-08-02T15:33:44;2.35;;;0.80;;
24901;SDS011;31328;51.402;0.016;2022-08-02T15:36:11;1.63;;;1.00;;
24901;SDS011;31328;51.402;0.016;2022-08-02T15:38:37;1.90;;;0.90;;
24901;SDS011;31328;51.402;0.016;2022-08-02T15:41:04;2.97;;;1.00;;
24901;SDS011;31328;51.402;0.016;2022-08-02T15:43:31;3.35;;;1.08;;
24901;SDS011;31328;51.402;0.016;2022-08-02T15:46:00;1.38;;;0.80;;